createdAt,value
2019-02-16T00:00:11.490Z,7.03
2019-02-16T00:02:39.878Z,6.30
2019-02-16T00:05:08.411Z,5.83
2019-02-16T00:07:36.822Z,6.67
2019-02-16T00:10:05.562Z,5.67
2019-02-16T00:12:33.999Z,7.90
2019-02-16T00:15:02.483Z,8.33
2019-02-16T00:17:30.862Z,7.10
2019-02-16T00:19:59.354Z,7.17
2019-02-16T00:22:27.814Z,5.70
2019-02-16T00:24:56.210Z,6.37
2019-02-16T00:27:24.618Z,6.50
2019-02-16T00:29:53.019Z,6.40
2019-02-16T00:32:21.467Z,6.37
2019-02-16T00:34:50.003Z,6.03
2019-02-16T00:37:18.395Z,6.40
2019-02-16T00:40:06.020Z,5.87
2019-02-16T00:42:34.479Z,5.63
2019-02-16T00:45:02.972Z,7.63
2019-02-16T00:47:31.430Z,9.50
2019-02-16T00:49:59.855Z,7.30
2019-02-16T00:52:28.327Z,9.20
2019-02-16T00:54:56.743Z,5.43
2019-02-16T00:57:25.215Z,6.47
2019-02-16T00:59:53.667Z,6.30
2019-02-16T01:02:22.232Z,4.70
2019-02-16T01:04:50.612Z,6.33
2019-02-16T01:07:19.002Z,5.23
2019-02-16T01:09:47.479Z,6.77
2019-02-16T01:12:16.267Z,5.77
2019-02-16T01:14:44.671Z,5.50
2019-02-16T01:17:13.184Z,5.50
2019-02-16T01:19:41.588Z,5.57
2019-02-16T01:22:10.204Z,5.60
2019-02-16T01:24:38.591Z,6.57
2019-02-16T01:27:07.084Z,7.50
2019-02-16T01:29:35.833Z,7.20
2019-02-16T01:32:40.904Z,8.03
2019-02-16T01:35:09.542Z,8.37
2019-02-16T01:37:38.006Z,5.77
2019-02-16T01:40:08.118Z,8.47
2019-02-16T01:42:36.882Z,5.60
2019-02-16T01:45:41.721Z,6.73
2019-02-16T01:48:46.448Z,5.57
2019-02-16T01:51:51.084Z,6.67
2019-02-16T01:54:55.539Z,7.63
2019-02-16T01:58:00.133Z,6.17
2019-02-16T02:01:05.173Z,5.60
2019-02-16T02:04:09.756Z,5.53
2019-02-16T02:07:14.461Z,8.10
2019-02-16T02:10:19.189Z,6.47
2019-02-16T02:13:23.945Z,6.17
2019-02-16T02:16:28.418Z,7.53
2019-02-16T02:19:33.245Z,7.57
2019-02-16T02:22:38.030Z,6.00
2019-02-16T02:25:42.705Z,6.87
2019-02-16T02:28:23.642Z,8.70
2019-02-16T02:30:52.470Z,5.97
2019-02-16T02:33:21.042Z,6.37
2019-02-16T02:35:50.326Z,6.17
2019-02-16T02:38:19.164Z,6.10
2019-02-16T02:40:48.044Z,7.57
2019-02-16T02:43:16.618Z,6.83
2019-02-16T02:45:45.134Z,5.60
2019-02-16T02:48:13.754Z,8.30
2019-02-16T02:50:42.698Z,8.53
2019-02-16T02:53:11.243Z,6.13
2019-02-16T02:55:39.852Z,5.63
2019-02-16T02:58:08.342Z,5.97
2019-02-16T03:00:36.885Z,6.47
2019-02-16T03:03:05.478Z,7.73
2019-02-16T03:05:33.950Z,5.97
2019-02-16T03:08:02.752Z,5.67
2019-02-16T03:10:31.283Z,7.50
2019-02-16T03:12:59.886Z,5.73
2019-02-16T03:15:28.423Z,6.40
2019-02-16T03:17:56.939Z,8.00
2019-02-16T03:20:25.582Z,7.23
2019-02-16T03:23:22.495Z,6.53
2019-02-16T03:25:52.895Z,7.83
2019-02-16T03:28:35.435Z,6.93
2019-02-16T03:31:14.264Z,6.73
2019-02-16T03:33:48.111Z,6.97
2019-02-16T03:36:33.351Z,8.03
2019-02-16T03:39:06.967Z,6.07
2019-02-16T03:41:35.711Z,8.23
2019-02-16T03:44:04.735Z,7.37
2019-02-16T03:46:33.251Z,6.47
2019-02-16T03:49:01.762Z,7.33
2019-02-16T03:51:30.471Z,7.77
2019-02-16T03:53:58.979Z,7.07
2019-02-16T03:56:27.507Z,8.27
2019-02-16T03:58:56.387Z,6.10
2019-02-16T04:01:25.081Z,7.63
2019-02-16T04:03:53.587Z,6.90
2019-02-16T04:06:22.175Z,7.27
2019-02-16T04:08:51.427Z,6.70
2019-02-16T04:11:19.971Z,8.53
2019-02-16T04:13:48.593Z,7.33
2019-02-16T04:16:17.199Z,6.67
2019-02-16T04:18:45.999Z,6.53
2019-02-16T04:21:14.522Z,9.27
2019-02-16T04:23:42.972Z,7.10
2019-02-16T04:26:11.495Z,7.67
2019-02-16T04:28:40.042Z,12.97
2019-02-16T04:31:08.426Z,8.20
2019-02-16T04:33:36.895Z,7.57
2019-02-16T04:36:05.367Z,12.10
2019-02-16T04:38:33.830Z,8.70
2019-02-16T04:41:02.280Z,9.23
2019-02-16T04:43:30.678Z,14.73
2019-02-16T04:45:59.051Z,9.13
2019-02-16T04:48:27.430Z,8.53
2019-02-16T04:50:55.860Z,8.40
2019-02-16T04:53:24.248Z,9.93
2019-02-16T04:55:52.631Z,7.37
2019-02-16T04:58:21.133Z,10.37
2019-02-16T05:00:49.606Z,12.37
2019-02-16T05:03:18.055Z,9.13
2019-02-16T05:05:46.474Z,9.67
2019-02-16T05:08:15.167Z,9.17
2019-02-16T05:10:43.552Z,8.60
2019-02-16T05:13:12.199Z,9.70
2019-02-16T05:15:40.736Z,13.93
2019-02-16T05:18:09.125Z,9.17
2019-02-16T05:20:37.785Z,10.20
2019-02-16T05:23:06.220Z,10.80
2019-02-16T05:25:34.967Z,7.90
2019-02-16T05:28:03.359Z,11.23
2019-02-16T05:30:32.319Z,11.10
2019-02-16T05:33:00.823Z,9.57
2019-02-16T05:35:29.352Z,8.63
2019-02-16T05:37:57.756Z,9.10
2019-02-16T05:40:26.169Z,7.93
2019-02-16T05:42:54.586Z,8.50
2019-02-16T05:45:22.992Z,9.23
2019-02-16T05:47:51.773Z,11.25
2019-02-16T05:50:20.232Z,8.87
2019-02-16T05:52:54.439Z,10.00
2019-02-16T05:55:19.223Z,10.70
2019-02-16T05:57:47.632Z,13.67
2019-02-16T06:00:18.236Z,12.03
2019-02-16T06:02:46.689Z,7.97
2019-02-16T06:05:15.108Z,11.30
2019-02-16T06:07:43.588Z,9.47
2019-02-16T06:10:12.204Z,10.60
2019-02-16T06:12:40.885Z,9.20
2019-02-16T06:15:10.028Z,9.60
2019-02-16T06:17:38.540Z,10.50
2019-02-16T06:20:07.314Z,12.13
2019-02-16T06:22:36.379Z,10.83
2019-02-16T06:25:04.949Z,16.73
2019-02-16T06:27:33.429Z,13.90
2019-02-16T06:30:02.277Z,10.23
2019-02-16T06:32:31.048Z,10.47
2019-02-16T06:35:08.077Z,9.60
2019-02-16T06:37:36.753Z,11.37
2019-02-16T06:40:05.234Z,8.37
2019-02-16T06:42:33.647Z,10.67
2019-02-16T06:45:02.133Z,11.37
2019-02-16T06:47:30.901Z,11.37
2019-02-16T06:50:00.260Z,13.90
2019-02-16T06:52:28.790Z,10.47
2019-02-16T06:54:57.245Z,11.27
2019-02-16T06:57:30.441Z,10.93
2019-02-16T06:59:58.857Z,12.13
2019-02-16T07:02:29.318Z,10.40
2019-02-16T07:04:57.854Z,14.07
2019-02-16T07:07:26.337Z,15.40
2019-02-16T07:09:56.981Z,16.57
2019-02-16T07:12:25.601Z,18.87
2019-02-16T07:14:54.001Z,15.43
2019-02-16T07:17:41.549Z,16.00
2019-02-16T07:20:10.773Z,15.43
2019-02-16T07:22:39.286Z,15.40
2019-02-16T07:25:07.894Z,19.13
2019-02-16T07:27:36.279Z,17.83
2019-02-16T07:30:04.878Z,21.37
2019-02-16T07:32:36.610Z,23.20
2019-02-16T07:35:09.317Z,30.07
2019-02-16T07:37:37.763Z,24.00
2019-02-16T07:40:06.208Z,29.93
2019-02-16T07:42:55.105Z,30.70
2019-02-16T07:45:49.866Z,48.30
2019-02-16T07:48:28.234Z,66.77
2019-02-16T07:51:05.202Z,65.53
2019-02-16T07:53:56.149Z,58.50
2019-02-16T07:56:31.761Z,33.90
2019-02-16T07:59:19.350Z,44.67
2019-02-16T08:01:56.712Z,37.30
2019-02-16T08:04:33.309Z,23.47
2019-02-16T08:07:19.803Z,18.87
2019-02-16T08:10:06.806Z,16.87
2019-02-16T08:12:53.554Z,20.03
2019-02-16T08:15:37.962Z,16.60
2019-02-16T08:18:34.670Z,17.67
2019-02-16T08:21:12.903Z,16.33
2019-02-16T08:24:09.487Z,16.57
2019-02-16T08:26:57.706Z,15.93
2019-02-16T08:29:57.638Z,18.97
2019-02-16T08:32:46.045Z,17.80
2019-02-16T08:35:24.248Z,17.47
2019-02-16T08:38:10.659Z,19.75
2019-02-16T08:40:52.773Z,38.47
2019-02-16T08:43:45.487Z,16.67
2019-02-16T08:46:25.505Z,7.77
2019-02-16T08:49:10.753Z,14.20
2019-02-16T08:51:54.144Z,12.50
2019-02-16T08:54:44.763Z,14.37
2019-02-16T08:57:31.227Z,14.43
2019-02-16T09:00:23.387Z,10.27
2019-02-16T09:03:14.805Z,14.70
2019-02-16T09:06:03.885Z,11.00
2019-02-16T09:08:50.331Z,11.60
2019-02-16T09:11:40.776Z,9.73
2019-02-16T09:14:31.218Z,10.20
2019-02-16T09:17:28.050Z,9.93
2019-02-16T09:20:21.866Z,10.43
2019-02-16T09:23:15.627Z,16.13
2019-02-16T09:26:06.586Z,9.43
2019-02-16T09:29:01.263Z,12.27
2019-02-16T09:31:51.496Z,28.07
2019-02-16T09:34:39.168Z,13.30
2019-02-16T09:37:13.627Z,13.73
2019-02-16T09:40:00.070Z,9.87
2019-02-16T09:42:39.959Z,10.30
2019-02-16T09:45:23.219Z,11.43
2019-02-16T09:47:58.559Z,12.13
2019-02-16T09:50:34.867Z,9.57
2019-02-16T09:53:33.351Z,9.70
2019-02-16T09:56:23.835Z,14.10
2019-02-16T09:59:01.854Z,12.17
2019-02-16T10:01:38.851Z,11.37
2019-02-16T10:04:44.763Z,12.83
2019-02-16T10:07:30.887Z,12.93
2019-02-16T10:10:16.496Z,12.83
2019-02-16T10:12:53.063Z,14.93
2019-02-16T10:15:52.803Z,14.17
2019-02-16T10:18:29.171Z,13.57
2019-02-16T10:21:16.855Z,13.53
2019-02-16T10:24:18.144Z,14.23
2019-02-16T10:27:05.986Z,12.93
2019-02-16T10:29:52.243Z,12.77
2019-02-16T10:32:49.180Z,15.90
2019-02-16T10:35:45.659Z,15.90
2019-02-16T10:38:21.364Z,13.93
2019-02-16T10:41:07.904Z,13.50
2019-02-16T10:43:49.580Z,13.60
2019-02-16T10:46:43.057Z,17.10
2019-02-16T10:49:29.219Z,15.83
2019-02-16T10:52:19.672Z,19.00
2019-02-16T10:54:54.875Z,15.60
2019-02-16T10:57:45.909Z,16.10
2019-02-16T11:00:32.513Z,16.53
2019-02-16T11:03:11.076Z,16.90
2019-02-16T11:05:45.208Z,15.63
2019-02-16T11:08:33.357Z,16.63
2019-02-16T11:11:27.046Z,23.50
2019-02-16T11:14:15.196Z,19.53
2019-02-16T11:17:01.497Z,24.07
2019-02-16T11:19:37.289Z,19.07
2019-02-16T11:22:11.337Z,21.43
2019-02-16T11:25:01.798Z,18.67
2019-02-16T11:27:49.409Z,21.77
2019-02-16T11:30:34.293Z,20.00
2019-02-16T11:33:09.449Z,26.00
2019-02-16T11:35:44.086Z,21.83
2019-02-16T11:38:19.643Z,20.90
2019-02-16T11:40:56.395Z,19.17
2019-02-16T11:43:29.696Z,23.87
2019-02-16T11:46:06.494Z,20.40
2019-02-16T11:48:44.892Z,19.93
2019-02-16T11:51:34.667Z,23.37
2019-02-16T11:54:14.107Z,22.43
2019-02-16T11:56:52.622Z,21.70
2019-02-16T11:59:43.079Z,22.37
2019-02-16T12:02:42.739Z,22.10
2019-02-16T12:05:30.351Z,21.13
2019-02-16T12:08:16.843Z,22.17
2019-02-16T12:11:00.710Z,21.07
2019-02-16T12:13:54.318Z,22.03
2019-02-16T12:16:53.713Z,19.93
2019-02-16T12:19:53.755Z,21.13
2019-02-16T12:22:56.517Z,22.27
2019-02-16T12:25:33.319Z,20.83
2019-02-16T12:28:45.439Z,22.40
2019-02-16T12:31:33.063Z,23.10
2019-02-16T12:34:10.991Z,22.33
2019-02-16T12:36:55.409Z,22.10
2019-02-16T12:39:42.035Z,20.30
2019-02-16T12:42:27.019Z,22.90
2019-02-16T12:45:01.184Z,21.37
2019-02-16T12:47:49.247Z,20.90
2019-02-16T12:50:36.903Z,19.93
2019-02-16T12:53:24.499Z,20.90
2019-02-16T12:56:11.944Z,20.33
2019-02-16T12:58:55.807Z,21.67
2019-02-16T13:01:52.391Z,21.93
2019-02-16T13:04:58.260Z,23.00
2019-02-16T13:07:41.320Z,20.17
2019-02-16T13:10:23.513Z,23.67
2019-02-16T13:13:26.786Z,22.50
2019-02-16T13:16:17.351Z,22.50
2019-02-16T13:18:55.912Z,22.80
2019-02-16T13:21:40.892Z,20.93
2019-02-16T13:24:27.056Z,21.10
2019-02-16T13:27:09.436Z,20.10
2019-02-16T13:29:52.860Z,20.97
2019-02-16T13:32:39.812Z,25.07
2019-02-16T13:35:45.632Z,21.93
2019-02-16T13:38:27.884Z,19.90
2019-02-16T13:41:24.332Z,20.00
2019-02-16T13:44:22.368Z,19.50
2019-02-16T13:47:11.340Z,18.60
2019-02-16T13:49:52.536Z,17.23
2019-02-16T13:52:39.109Z,18.70
2019-02-16T13:55:18.279Z,18.03
2019-02-16T13:58:08.856Z,16.33
2019-02-16T14:00:47.380Z,17.03
2019-02-16T14:03:31.755Z,17.77
2019-02-16T14:06:12.205Z,17.23
2019-02-16T14:09:06.085Z,18.00
2019-02-16T14:11:58.704Z,17.60
2019-02-16T14:14:45.315Z,20.20
2019-02-16T14:17:48.276Z,18.33
2019-02-16T14:20:16.752Z,16.93
2019-02-16T14:22:45.232Z,18.07
2019-02-16T14:25:27.593Z,17.30
2019-02-16T14:27:56.244Z,15.50
2019-02-16T14:30:24.916Z,20.23
2019-02-16T14:32:53.617Z,17.80
2019-02-16T14:35:22.001Z,16.47
2019-02-16T14:38:04.637Z,16.67
2019-02-16T14:40:33.451Z,18.97
2019-02-16T14:43:01.853Z,17.30
2019-02-16T14:45:31.516Z,16.83
2019-02-16T14:48:00.008Z,15.50
2019-02-16T14:50:28.404Z,16.10
2019-02-16T14:52:56.843Z,15.97
2019-02-16T14:55:25.316Z,16.00
2019-02-16T14:57:54.868Z,15.80
2019-02-16T15:00:23.480Z,15.70
2019-02-16T15:02:51.896Z,14.47
2019-02-16T15:05:20.284Z,16.50
2019-02-16T15:07:48.863Z,16.67
2019-02-16T15:10:17.352Z,16.47
2019-02-16T15:12:45.861Z,15.17
2019-02-16T15:15:14.344Z,18.30
2019-02-16T15:17:42.820Z,14.77
2019-02-16T15:20:12.052Z,15.57
2019-02-16T15:22:40.532Z,17.00
2019-02-16T15:25:10.698Z,16.57
2019-02-16T15:27:39.332Z,18.63
2019-02-16T15:30:09.655Z,18.17
2019-02-16T15:32:38.536Z,18.30
2019-02-16T15:35:07.477Z,17.90
2019-02-16T15:37:35.940Z,17.07
2019-02-16T15:40:04.412Z,14.90
2019-02-16T15:42:32.849Z,18.07
2019-02-16T15:45:01.252Z,19.77
2019-02-16T15:47:29.669Z,21.63
2019-02-16T15:49:58.149Z,18.87
2019-02-16T15:52:26.609Z,19.53
2019-02-16T15:54:55.373Z,16.97
2019-02-16T15:57:23.831Z,18.10
2019-02-16T15:59:52.364Z,20.60
2019-02-16T16:02:20.800Z,18.73
2019-02-16T16:04:49.294Z,20.10
2019-02-16T16:07:18.021Z,18.40
2019-02-16T16:09:53.533Z,19.57
2019-02-16T16:12:41.581Z,33.23
2019-02-16T16:15:32.017Z,24.00
2019-02-16T16:18:11.021Z,21.97
2019-02-16T16:20:58.689Z,21.93
2019-02-16T16:23:47.917Z,17.97
2019-02-16T16:26:39.553Z,19.27
2019-02-16T16:29:26.451Z,23.20
2019-02-16T16:32:08.814Z,21.77
2019-02-16T16:34:57.334Z,20.40
2019-02-16T16:37:44.209Z,20.20
2019-02-16T16:40:34.505Z,20.67
2019-02-16T16:43:25.344Z,22.90
2019-02-16T16:46:28.302Z,22.30
2019-02-16T16:49:12.754Z,24.17
2019-02-16T16:52:00.338Z,21.47
2019-02-16T16:54:41.386Z,26.20
2019-02-16T16:57:44.386Z,21.20
2019-02-16T17:00:30.830Z,20.37
2019-02-16T17:03:18.378Z,22.57
2019-02-16T17:06:15.283Z,25.07
2019-02-16T17:08:52.946Z,24.83
2019-02-16T17:11:46.614Z,28.40
2019-02-16T17:14:28.270Z,26.37
2019-02-16T17:17:05.690Z,26.10
2019-02-16T17:19:53.238Z,34.50
2019-02-16T17:22:43.846Z,26.40
2019-02-16T17:25:20.138Z,27.43
2019-02-16T17:27:57.352Z,27.67
2019-02-16T17:30:30.958Z,34.57
2019-02-16T17:33:09.067Z,31.73
2019-02-16T17:35:43.408Z,35.57
2019-02-16T17:38:29.879Z,34.27
2019-02-16T17:41:10.455Z,28.73
2019-02-16T17:44:10.667Z,27.70
2019-02-16T17:46:57.200Z,27.33
2019-02-16T17:49:56.998Z,28.43
2019-02-16T17:52:48.331Z,38.23
2019-02-16T17:55:34.496Z,40.47
2019-02-16T17:58:21.827Z,33.47
2019-02-16T18:01:02.600Z,38.73
2019-02-16T18:03:50.569Z,36.33
2019-02-16T18:06:38.163Z,29.87
2019-02-16T18:09:16.371Z,30.80
2019-02-16T18:12:10.084Z,28.33
2019-02-16T18:15:00.703Z,31.37
2019-02-16T18:18:03.766Z,31.90
2019-02-16T18:20:45.027Z,30.43
2019-02-16T18:23:23.129Z,32.20
2019-02-16T18:26:13.840Z,28.37
2019-02-16T18:28:57.632Z,30.80
2019-02-16T18:31:44.138Z,35.57
2019-02-16T18:34:34.522Z,34.10
2019-02-16T18:37:11.551Z,33.50
2019-02-16T18:39:50.257Z,41.93
2019-02-16T18:42:56.315Z,38.30
2019-02-16T18:45:42.852Z,36.70
2019-02-16T18:48:21.363Z,36.90
2019-02-16T18:51:11.808Z,38.57
2019-02-16T18:53:55.921Z,33.57
2019-02-16T18:56:36.453Z,36.70
2019-02-16T18:59:33.018Z,36.20
2019-02-16T19:02:23.176Z,32.80
2019-02-16T19:05:14.827Z,35.87
2019-02-16T19:07:55.005Z,30.50
2019-02-16T19:10:45.628Z,35.60
2019-02-16T19:13:26.420Z,32.57
2019-02-16T19:16:05.382Z,34.07
2019-02-16T19:18:51.837Z,32.30
2019-02-16T19:21:27.498Z,27.10
2019-02-16T19:24:15.869Z,31.87
2019-02-16T19:27:16.753Z,34.20
2019-02-16T19:29:54.901Z,31.37
2019-02-16T19:32:41.413Z,27.93
2019-02-16T19:35:24.621Z,27.83
2019-02-16T19:38:06.209Z,34.00
2019-02-16T19:40:52.597Z,29.57
2019-02-16T19:43:47.393Z,27.60
2019-02-16T19:46:41.105Z,25.10
2019-02-16T19:49:15.734Z,26.60
2019-02-16T19:55:11.325Z,31.73
2019-02-16T19:58:02.014Z,30.80
2019-02-16T20:01:04.753Z,30.27
2019-02-16T20:04:04.702Z,28.70
2019-02-16T20:06:55.238Z,31.87
2019-02-16T20:09:29.894Z,29.53
2019-02-16T20:12:17.438Z,30.47
2019-02-16T20:15:07.842Z,21.13
2019-02-16T20:17:51.422Z,23.70
2019-02-16T20:20:48.286Z,21.63
2019-02-16T20:23:33.627Z,24.83
2019-02-16T20:26:30.206Z,25.67
2019-02-16T20:29:11.362Z,22.70
2019-02-16T20:31:51.298Z,26.93
2019-02-16T20:34:42.233Z,24.40
2019-02-16T20:37:17.722Z,23.23
2019-02-16T20:40:04.781Z,25.57
2019-02-16T20:42:52.326Z,24.33
2019-02-16T20:45:43.515Z,26.60
2019-02-16T20:48:31.362Z,30.20
2019-02-16T20:51:17.646Z,27.73
2019-02-16T20:54:11.114Z,31.37
2019-02-16T20:56:58.735Z,26.03
2019-02-16T20:59:45.054Z,26.00
2019-02-16T21:02:48.058Z,25.90
2019-02-16T21:05:43.058Z,25.03
2019-02-16T21:08:33.762Z,29.17
2019-02-16T21:11:22.404Z,26.53
2019-02-16T21:13:57.123Z,30.00
2019-02-16T21:16:48.026Z,27.97
2019-02-16T21:19:35.354Z,26.03
2019-02-16T21:22:25.829Z,27.63
2019-02-16T21:24:59.446Z,24.50
2019-02-16T21:27:36.513Z,23.63
2019-02-16T21:30:21.499Z,24.87
2019-02-16T21:33:18.095Z,25.73
2019-02-16T21:36:03.320Z,23.93
2019-02-16T21:39:03.262Z,28.63
2019-02-16T21:41:46.652Z,31.37
2019-02-16T21:44:34.212Z,29.30
2019-02-16T21:47:08.799Z,30.03
2019-02-16T21:49:55.124Z,26.97
2019-02-16T21:52:31.671Z,28.70
2019-02-16T21:55:05.797Z,27.63
2019-02-16T21:57:45.239Z,29.40
2019-02-16T22:00:44.943Z,29.60
2019-02-16T22:03:36.091Z,46.53
2019-02-16T22:06:33.103Z,30.67
2019-02-16T22:09:12.355Z,36.67
2019-02-16T22:11:50.692Z,30.10
2019-02-16T22:14:19.144Z,35.73
2019-02-16T22:16:47.583Z,27.27
2019-02-16T22:19:16.359Z,29.07
2019-02-16T22:21:44.755Z,34.67
2019-02-16T22:24:13.131Z,28.87
2019-02-16T22:26:41.616Z,32.73
2019-02-16T22:29:10.092Z,25.43
2019-02-16T22:31:38.575Z,26.37
2019-02-16T22:34:07.244Z,26.43
2019-02-16T22:36:35.685Z,30.97
2019-02-16T22:39:04.804Z,31.80
2019-02-16T22:41:33.187Z,30.73
2019-02-16T22:44:02.474Z,27.50
2019-02-16T22:46:31.006Z,27.50
2019-02-16T22:48:59.389Z,29.93
2019-02-16T22:51:27.809Z,26.50
2019-02-16T22:53:56.225Z,37.93
2019-02-16T22:56:24.620Z,39.13
2019-02-16T22:58:53.300Z,29.80
2019-02-16T23:01:21.782Z,29.13
2019-02-16T23:03:50.349Z,25.03
2019-02-16T23:06:18.941Z,26.87
2019-02-16T23:08:47.400Z,36.27
2019-02-16T23:11:15.857Z,34.63
2019-02-16T23:13:44.326Z,34.53
2019-02-16T23:16:12.718Z,37.93
2019-02-16T23:18:41.143Z,33.97
2019-02-16T23:21:09.598Z,31.70
2019-02-16T23:23:38.015Z,26.53
2019-02-16T23:26:06.406Z,29.33
2019-02-16T23:28:39.026Z,29.63
2019-02-16T23:31:05.006Z,25.47
2019-02-16T23:33:33.766Z,28.97
2019-02-16T23:36:02.407Z,33.87
2019-02-16T23:38:30.810Z,32.77
2019-02-16T23:40:59.198Z,31.07
2019-02-16T23:43:27.598Z,36.27
2019-02-16T23:45:55.985Z,30.73
2019-02-16T23:48:24.354Z,32.57
2019-02-16T23:50:52.758Z,32.53
2019-02-16T23:53:21.170Z,29.47
2019-02-16T23:55:49.552Z,30.00
2019-02-16T23:58:17.947Z,28.73
